createdAt,value
2017-08-22T00:01:15.085Z,2.40
2017-08-22T00:03:42.614Z,2.25
2017-08-22T00:06:10.180Z,2.42
2017-08-22T00:08:37.737Z,2.60
2017-08-22T00:11:05.268Z,2.33
2017-08-22T00:13:32.817Z,2.50
2017-08-22T00:16:00.362Z,2.80
2017-08-22T00:18:27.931Z,2.28
2017-08-22T00:20:55.467Z,2.60
2017-08-22T00:23:23.038Z,3.17
2017-08-22T00:25:50.596Z,2.50
2017-08-22T00:28:18.167Z,3.10
2017-08-22T00:30:45.724Z,3.00
2017-08-22T00:33:13.243Z,4.18
2017-08-22T00:35:40.810Z,3.55
2017-08-22T00:38:09.121Z,3.50
2017-08-22T00:40:36.716Z,3.20
2017-08-22T00:43:04.261Z,2.72
2017-08-22T00:45:31.822Z,2.70
2017-08-22T00:47:59.358Z,3.17
2017-08-22T00:50:26.914Z,3.12
2017-08-22T00:52:54.444Z,3.20
2017-08-22T00:55:21.976Z,3.05
2017-08-22T00:57:49.522Z,2.30
2017-08-22T01:00:17.068Z,3.15
2017-08-22T01:02:44.639Z,2.78
2017-08-22T01:05:12.169Z,3.08
2017-08-22T01:07:39.721Z,2.83
2017-08-22T01:10:07.276Z,2.65
2017-08-22T01:12:34.801Z,3.22
2017-08-22T01:15:02.349Z,2.90
2017-08-22T01:17:29.882Z,3.58
2017-08-22T01:19:57.436Z,2.87
2017-08-22T01:22:24.969Z,3.12
2017-08-22T01:24:52.512Z,2.78
2017-08-22T01:27:20.073Z,2.53
2017-08-22T01:29:47.600Z,2.33
2017-08-22T01:32:15.169Z,2.95
2017-08-22T01:34:42.701Z,2.72
2017-08-22T01:37:10.264Z,3.05
2017-08-22T01:39:37.802Z,2.90
2017-08-22T01:42:05.394Z,2.97
2017-08-22T01:44:32.936Z,3.28
2017-08-22T01:47:00.491Z,2.60
2017-08-22T01:49:28.046Z,3.47
2017-08-22T01:51:55.570Z,2.72
2017-08-22T01:54:23.118Z,2.50
2017-08-22T01:56:50.650Z,3.08
2017-08-22T01:59:18.180Z,3.40
2017-08-22T02:01:45.777Z,3.00
2017-08-22T02:04:13.331Z,2.70
2017-08-22T02:06:40.916Z,2.85
2017-08-22T02:09:08.470Z,3.10
2017-08-22T02:11:36.026Z,2.75
2017-08-22T02:14:03.560Z,2.55
2017-08-22T02:16:31.157Z,2.95
2017-08-22T02:18:58.698Z,2.92
2017-08-22T02:21:26.261Z,2.97
2017-08-22T02:23:53.830Z,3.45
2017-08-22T02:26:21.391Z,3.72
2017-08-22T02:28:49.079Z,2.70
2017-08-22T02:31:16.617Z,3.17
2017-08-22T02:33:44.164Z,3.50
2017-08-22T02:36:11.723Z,3.35
2017-08-22T02:38:39.249Z,3.08
2017-08-22T02:41:06.784Z,2.60
2017-08-22T02:43:34.336Z,3.53
2017-08-22T02:46:01.864Z,2.87
2017-08-22T02:48:29.428Z,3.10
2017-08-22T02:50:56.966Z,3.45
2017-08-22T02:53:24.510Z,3.85
2017-08-22T02:55:52.049Z,3.20
2017-08-22T02:58:19.605Z,3.17
2017-08-22T03:00:47.145Z,3.40
2017-08-22T03:03:14.665Z,3.00
2017-08-22T03:05:42.213Z,4.20
2017-08-22T03:08:09.741Z,2.75
2017-08-22T03:10:37.290Z,3.35
2017-08-22T03:13:04.825Z,3.15
2017-08-22T03:15:32.362Z,3.40
2017-08-22T03:17:59.917Z,3.85
2017-08-22T03:20:27.481Z,3.15
2017-08-22T03:22:55.036Z,2.78
2017-08-22T03:25:22.556Z,3.28
2017-08-22T03:27:50.089Z,3.42
2017-08-22T03:30:17.613Z,3.65
2017-08-22T03:32:45.141Z,3.53
2017-08-22T03:35:12.701Z,2.92
2017-08-22T03:37:40.229Z,3.55
2017-08-22T03:40:07.784Z,2.70
2017-08-22T03:42:35.356Z,2.80
2017-08-22T03:45:02.894Z,3.65
2017-08-22T03:47:30.457Z,3.10
2017-08-22T03:49:57.985Z,3.42
2017-08-22T03:52:25.634Z,2.90
2017-08-22T03:54:53.161Z,3.12
2017-08-22T03:57:21.161Z,2.97
2017-08-22T03:59:48.689Z,2.95
2017-08-22T04:02:16.261Z,3.62
2017-08-22T04:04:43.806Z,3.92
2017-08-22T04:07:11.360Z,3.33
2017-08-22T04:09:38.916Z,3.90
2017-08-22T04:12:06.446Z,4.05
2017-08-22T04:14:34.002Z,4.20
2017-08-22T04:17:01.639Z,3.25
2017-08-22T04:19:29.181Z,3.67
2017-08-22T04:21:56.708Z,3.50
2017-08-22T04:24:24.233Z,3.33
2017-08-22T04:26:51.809Z,2.95
2017-08-22T04:29:19.354Z,3.45
2017-08-22T04:31:46.905Z,4.30
2017-08-22T04:34:14.432Z,3.90
2017-08-22T04:36:41.960Z,3.08
2017-08-22T04:39:09.516Z,3.97
2017-08-22T04:41:37.058Z,3.47
2017-08-22T04:44:04.593Z,3.25
2017-08-22T04:46:32.185Z,3.70
2017-08-22T04:48:59.712Z,3.72
2017-08-22T04:51:27.249Z,3.83
2017-08-22T04:53:54.791Z,3.30
2017-08-22T04:56:22.340Z,3.47
2017-08-22T04:58:49.888Z,3.35
2017-08-22T05:01:17.408Z,3.78
2017-08-22T05:03:44.942Z,3.20
2017-08-22T05:06:12.501Z,3.35
2017-08-22T05:08:40.045Z,4.25
2017-08-22T05:11:07.592Z,3.25
2017-08-22T05:13:35.141Z,3.70
2017-08-22T05:16:02.673Z,3.40
2017-08-22T05:18:30.200Z,3.28
2017-08-22T05:20:57.811Z,2.75
2017-08-22T05:23:25.350Z,3.00
2017-08-22T05:25:52.909Z,2.92
2017-08-22T05:28:20.438Z,3.37
2017-08-22T05:30:47.971Z,3.95
2017-08-22T05:33:15.533Z,3.70
2017-08-22T05:35:43.074Z,4.35
2017-08-22T05:38:10.628Z,4.05
2017-08-22T05:40:38.169Z,3.30
2017-08-22T05:43:05.724Z,3.92
2017-08-22T05:45:33.256Z,4.10
2017-08-22T05:48:00.785Z,3.53
2017-08-22T05:50:28.325Z,4.30
2017-08-22T05:52:55.867Z,4.72
2017-08-22T05:55:23.420Z,4.05
2017-08-22T05:57:50.953Z,3.65
2017-08-22T06:00:18.493Z,3.72
2017-08-22T06:02:46.037Z,3.85
2017-08-22T06:05:13.585Z,4.47
2017-08-22T06:07:41.129Z,4.12
2017-08-22T06:10:08.675Z,4.50
2017-08-22T06:12:36.224Z,3.67
2017-08-22T06:15:03.787Z,4.10
2017-08-22T06:17:31.350Z,3.95
2017-08-22T06:19:58.925Z,4.25
2017-08-22T06:22:26.483Z,4.62
2017-08-22T06:24:54.044Z,3.37
2017-08-22T06:27:21.605Z,4.00
2017-08-22T06:29:49.142Z,2.97
2017-08-22T06:32:16.667Z,2.45
2017-08-22T06:34:44.228Z,2.40
2017-08-22T06:37:11.753Z,2.37
2017-08-22T06:39:39.305Z,2.93
2017-08-22T06:42:06.950Z,2.70
2017-08-22T06:44:34.609Z,1.90
2017-08-22T06:47:02.138Z,2.33
2017-08-22T06:49:29.695Z,2.03
2017-08-22T06:51:57.261Z,2.37
2017-08-22T06:54:24.783Z,1.77
2017-08-22T06:56:52.348Z,2.33
2017-08-22T06:59:19.881Z,1.67
2017-08-22T07:01:47.430Z,1.73
2017-08-22T07:04:14.958Z,2.10
2017-08-22T07:06:42.481Z,1.97
2017-08-22T07:09:10.033Z,1.97
2017-08-22T07:11:37.585Z,1.83
2017-08-22T07:14:05.126Z,1.70
2017-08-22T07:16:32.668Z,1.60
2017-08-22T07:19:00.217Z,1.60
2017-08-22T07:21:27.765Z,1.87
2017-08-22T07:23:55.289Z,1.40
2017-08-22T07:26:22.836Z,1.97
2017-08-22T07:28:50.381Z,1.70
2017-08-22T07:31:17.945Z,1.90
2017-08-22T07:33:45.550Z,2.03
2017-08-22T07:36:13.081Z,1.80
2017-08-22T07:38:40.646Z,1.70
2017-08-22T07:41:08.194Z,1.67
2017-08-22T07:43:35.721Z,1.70
2017-08-22T07:46:03.241Z,1.70
2017-08-22T07:48:30.814Z,1.60
2017-08-22T07:50:58.378Z,1.50
2017-08-22T07:53:25.938Z,1.67
2017-08-22T07:55:53.479Z,1.90
2017-08-22T07:58:21.034Z,1.97
2017-08-22T08:00:48.593Z,2.00
2017-08-22T08:03:16.153Z,1.50
2017-08-22T08:05:43.722Z,1.90
2017-08-22T08:08:11.264Z,1.40
2017-08-22T08:10:38.792Z,1.53
2017-08-22T08:13:06.336Z,2.20
2017-08-22T08:15:33.884Z,1.57
2017-08-22T08:18:01.405Z,1.80
2017-08-22T08:20:29.016Z,1.70
2017-08-22T08:22:56.698Z,1.70
2017-08-22T08:25:24.226Z,1.80
2017-08-22T08:27:51.820Z,2.00
2017-08-22T08:30:19.347Z,1.50
2017-08-22T08:32:46.910Z,1.50
2017-08-22T08:35:14.449Z,1.63
2017-08-22T08:37:42.026Z,1.70
2017-08-22T08:40:09.553Z,1.50
2017-08-22T08:42:37.094Z,2.00
2017-08-22T08:45:04.636Z,1.50
2017-08-22T08:47:32.165Z,1.53
2017-08-22T08:49:59.708Z,2.00
2017-08-22T08:52:27.265Z,1.60
2017-08-22T08:54:54.831Z,1.70
2017-08-22T08:57:22.376Z,1.60
2017-08-22T08:59:49.929Z,2.17
2017-08-22T09:02:17.468Z,1.87
2017-08-22T09:04:44.992Z,1.80
2017-08-22T09:07:12.553Z,1.80
2017-08-22T09:09:40.086Z,1.40
2017-08-22T09:12:07.634Z,1.63
2017-08-22T09:14:35.169Z,1.90
2017-08-22T09:17:02.694Z,1.97
2017-08-22T09:19:30.247Z,1.70
2017-08-22T09:21:57.785Z,1.40
2017-08-22T09:24:26.090Z,1.50
2017-08-22T09:26:53.625Z,1.40
2017-08-22T09:29:21.164Z,1.40
2017-08-22T09:31:48.697Z,1.40
2017-08-22T09:34:16.245Z,1.30
2017-08-22T09:36:43.769Z,1.20
2017-08-22T09:39:11.318Z,1.27
2017-08-22T09:41:38.874Z,1.30
2017-08-22T09:44:06.410Z,1.33
2017-08-22T09:46:33.965Z,1.30
2017-08-22T09:49:01.633Z,1.07
2017-08-22T09:51:29.199Z,1.20
2017-08-22T09:53:56.820Z,1.20
2017-08-22T09:56:24.353Z,1.30
2017-08-22T09:58:51.901Z,1.27
2017-08-22T10:01:19.417Z,1.37
2017-08-22T10:03:47.032Z,2.03
2017-08-22T10:06:14.568Z,1.20
2017-08-22T10:09:18.282Z,1.47
2017-08-22T10:11:46.585Z,1.37
2017-08-22T10:14:14.109Z,1.30
2017-08-22T10:16:41.657Z,1.30
2017-08-22T10:19:09.187Z,1.43
2017-08-22T10:21:36.845Z,1.40
2017-08-22T10:24:04.386Z,1.47
2017-08-22T10:26:31.949Z,1.67
2017-08-22T10:28:59.479Z,1.50
2017-08-22T10:31:27.033Z,1.93
2017-08-22T10:33:54.584Z,1.33
2017-08-22T10:36:22.116Z,1.23
2017-08-22T10:38:49.658Z,1.50
2017-08-22T10:41:17.226Z,1.47
2017-08-22T10:43:44.766Z,1.27
2017-08-22T10:46:12.349Z,1.50
2017-08-22T10:48:39.918Z,1.20
2017-08-22T10:51:07.506Z,1.83
2017-08-22T10:53:35.105Z,1.20
2017-08-22T10:56:02.665Z,1.43
2017-08-22T10:58:30.215Z,1.30
2017-08-22T11:00:57.778Z,1.97
2017-08-22T11:03:25.322Z,1.47
2017-08-22T11:05:52.867Z,1.30
2017-08-22T11:08:20.433Z,1.30
2017-08-22T11:10:48.030Z,1.37
2017-08-22T11:13:15.616Z,1.20
2017-08-22T11:15:43.162Z,1.70
2017-08-22T11:18:10.728Z,1.50
2017-08-22T11:20:38.281Z,1.10
2017-08-22T11:23:05.855Z,1.10
2017-08-22T11:25:33.402Z,1.30
2017-08-22T11:28:00.957Z,1.33
2017-08-22T11:30:28.555Z,1.43
2017-08-22T11:32:56.107Z,1.30
2017-08-22T11:35:23.688Z,1.30
2017-08-22T11:37:51.247Z,1.30
2017-08-22T11:40:18.822Z,1.50
2017-08-22T11:42:47.265Z,1.20
2017-08-22T11:45:14.869Z,1.30
2017-08-22T11:47:42.413Z,1.33
2017-08-22T11:50:09.941Z,1.47
2017-08-22T11:52:37.498Z,1.20
2017-08-22T11:55:05.033Z,1.30
2017-08-22T11:57:32.576Z,1.80
2017-08-22T12:00:00.109Z,1.40
2017-08-22T12:02:27.660Z,1.20
2017-08-22T12:04:55.184Z,1.37
2017-08-22T12:07:22.738Z,1.70
2017-08-22T12:09:50.265Z,1.40
2017-08-22T12:12:17.813Z,1.27
2017-08-22T12:14:45.337Z,1.40
2017-08-22T12:17:12.893Z,1.20
2017-08-22T12:19:40.417Z,1.43
2017-08-22T12:22:07.946Z,1.53
2017-08-22T12:24:35.510Z,1.40
2017-08-22T12:27:03.048Z,1.43
2017-08-22T12:29:30.595Z,1.20
2017-08-22T12:31:58.129Z,1.30
2017-08-22T12:34:25.690Z,1.37
2017-08-22T12:36:53.239Z,1.40
2017-08-22T12:39:20.772Z,1.70
2017-08-22T12:41:48.325Z,1.53
2017-08-22T12:44:15.864Z,1.23
2017-08-22T12:46:43.429Z,1.20
2017-08-22T12:49:10.957Z,1.87
2017-08-22T12:51:38.500Z,1.50
2017-08-22T12:54:06.071Z,1.90
2017-08-22T12:56:33.636Z,1.30
2017-08-22T12:59:01.169Z,1.30
2017-08-22T13:01:28.721Z,1.70
2017-08-22T13:03:56.266Z,1.60
2017-08-22T13:06:23.800Z,1.50
2017-08-22T13:08:51.346Z,1.50
2017-08-22T13:11:18.888Z,1.60
2017-08-22T13:13:46.449Z,1.60
2017-08-22T13:16:14.010Z,1.50
2017-08-22T13:18:41.542Z,1.60
2017-08-22T13:21:09.090Z,1.37
2017-08-22T13:23:36.619Z,1.57
2017-08-22T13:26:04.159Z,1.13
2017-08-22T13:28:31.697Z,1.50
2017-08-22T13:30:59.256Z,1.40
2017-08-22T13:33:26.827Z,1.50
2017-08-22T13:35:54.377Z,1.33
2017-08-22T13:38:21.917Z,1.33
2017-08-22T13:40:49.456Z,1.27
2017-08-22T13:43:17.069Z,1.60
2017-08-22T13:45:44.605Z,1.93
2017-08-22T13:48:12.168Z,1.57
2017-08-22T13:50:39.698Z,1.60
2017-08-22T13:53:07.259Z,1.20
2017-08-22T13:55:34.820Z,1.50
2017-08-22T13:58:02.349Z,1.53
2017-08-22T14:00:29.872Z,2.20
2017-08-22T14:02:57.448Z,1.47
2017-08-22T14:05:25.865Z,1.60
2017-08-22T14:07:53.406Z,1.23
2017-08-22T14:10:20.935Z,1.33
2017-08-22T14:12:48.490Z,1.40
2017-08-22T14:15:16.028Z,1.57
2017-08-22T14:17:43.591Z,1.50
2017-08-22T14:20:11.148Z,1.40
2017-08-22T14:22:38.689Z,1.60
2017-08-22T14:25:06.229Z,1.40
2017-08-22T14:27:33.753Z,1.40
2017-08-22T14:30:01.305Z,1.43
2017-08-22T14:32:28.841Z,1.47
2017-08-22T14:34:56.401Z,1.50
2017-08-22T14:37:23.925Z,1.70
2017-08-22T14:39:51.473Z,1.77
2017-08-22T14:42:19.005Z,1.50
2017-08-22T14:44:46.582Z,1.50
2017-08-22T14:47:14.172Z,1.53
2017-08-22T14:49:41.712Z,1.70
2017-08-22T14:52:09.277Z,1.87
2017-08-22T14:54:36.804Z,1.60
2017-08-22T14:57:04.341Z,1.40
2017-08-22T14:59:31.901Z,1.67
2017-08-22T15:01:59.430Z,1.23
2017-08-22T15:04:26.993Z,1.67
2017-08-22T15:06:54.529Z,1.63
2017-08-22T15:09:22.085Z,1.53
2017-08-22T15:11:49.616Z,1.50
2017-08-22T15:14:17.165Z,1.40
2017-08-22T15:16:44.720Z,1.57
2017-08-22T15:19:12.317Z,1.60
2017-08-22T15:21:39.845Z,1.60
2017-08-22T15:24:07.398Z,1.47
2017-08-22T15:26:34.925Z,1.50
2017-08-22T15:29:02.486Z,1.37
2017-08-22T15:31:30.028Z,1.97
2017-08-22T15:33:57.570Z,1.40
2017-08-22T15:36:25.128Z,1.73
2017-08-22T15:38:52.654Z,1.33
2017-08-22T15:41:20.247Z,1.53
2017-08-22T15:43:47.794Z,1.63
2017-08-22T15:46:15.348Z,1.40
2017-08-22T15:48:42.880Z,1.63
2017-08-22T15:51:10.422Z,1.80
2017-08-22T15:53:37.976Z,1.57
2017-08-22T15:56:06.024Z,1.90
2017-08-22T15:58:33.597Z,1.40
2017-08-22T16:01:01.132Z,1.60
2017-08-22T16:03:28.673Z,1.67
2017-08-22T16:05:56.246Z,1.77
2017-08-22T16:08:23.810Z,2.00
2017-08-22T16:10:52.117Z,1.73
2017-08-22T16:13:19.686Z,1.70
2017-08-22T16:15:47.241Z,2.13
2017-08-22T16:18:14.794Z,2.43
2017-08-22T16:20:42.366Z,2.50
2017-08-22T16:23:09.898Z,1.80
2017-08-22T16:25:37.498Z,1.87
2017-08-22T16:28:05.098Z,1.60
2017-08-22T16:30:32.661Z,2.00
2017-08-22T16:33:00.209Z,1.83
2017-08-22T16:35:27.765Z,1.90
2017-08-22T16:37:55.289Z,2.40
2017-08-22T16:40:23.044Z,2.00
2017-08-22T16:42:50.596Z,1.70
2017-08-22T16:45:18.154Z,2.57
2017-08-22T16:47:45.681Z,2.23
2017-08-22T16:50:13.209Z,2.40
2017-08-22T16:52:40.788Z,2.50
2017-08-22T16:55:08.433Z,1.80
2017-08-22T16:57:35.995Z,2.10
2017-08-22T17:00:04.501Z,2.20
2017-08-22T17:02:32.138Z,1.93
2017-08-22T17:05:00.622Z,2.03
2017-08-22T17:07:29.164Z,2.00
2017-08-22T17:09:57.845Z,1.93
2017-08-22T17:12:26.511Z,1.70
2017-08-22T17:14:55.014Z,1.80
2017-08-22T17:17:23.111Z,1.93
2017-08-22T17:19:51.006Z,2.00
2017-08-22T17:22:18.916Z,2.03
2017-08-22T17:24:47.245Z,2.47
2017-08-22T17:27:14.988Z,1.80
2017-08-22T17:29:42.965Z,2.07
2017-08-22T17:32:10.840Z,2.30
2017-08-22T17:34:39.239Z,1.93
2017-08-22T17:37:08.556Z,1.93
2017-08-22T17:39:36.109Z,2.40
2017-08-22T17:42:03.654Z,2.10
2017-08-22T17:44:31.218Z,2.37
2017-08-22T17:46:58.746Z,2.27
2017-08-22T17:49:26.352Z,2.00
2017-08-22T17:51:53.917Z,2.13
2017-08-22T17:54:21.460Z,2.43
2017-08-22T17:56:49.001Z,2.20
2017-08-22T17:59:16.565Z,2.53
2017-08-22T18:01:44.115Z,1.70
2017-08-22T18:04:11.679Z,2.07
2017-08-22T18:06:39.225Z,2.17
2017-08-22T18:09:06.818Z,2.10
2017-08-22T18:11:34.361Z,1.90
2017-08-22T18:14:01.928Z,1.67
2017-08-22T18:16:29.471Z,2.40
2017-08-22T18:18:57.118Z,1.83
2017-08-22T18:21:24.713Z,2.07
2017-08-22T18:23:52.269Z,1.97
2017-08-22T18:26:19.816Z,2.43
2017-08-22T18:28:47.373Z,1.90
2017-08-22T18:31:14.980Z,1.73
2017-08-22T18:33:42.568Z,2.33
2017-08-22T18:36:10.109Z,2.00
2017-08-22T18:38:37.660Z,2.00
2017-08-22T18:41:05.181Z,2.00
2017-08-22T18:43:32.798Z,1.90
2017-08-22T18:46:00.364Z,2.10
2017-08-22T18:48:27.913Z,2.07
2017-08-22T18:50:55.578Z,1.77
2017-08-22T18:53:23.148Z,1.80
2017-08-22T18:55:50.673Z,2.07
2017-08-22T18:58:18.226Z,1.80
2017-08-22T19:00:45.793Z,1.90
2017-08-22T19:03:13.387Z,2.30
2017-08-22T19:05:41.143Z,1.93
2017-08-22T19:08:08.679Z,2.20
2017-08-22T19:10:36.236Z,1.77
2017-08-22T19:13:03.800Z,2.40
2017-08-22T19:15:31.340Z,2.13
2017-08-22T19:17:58.890Z,2.13
2017-08-22T19:20:26.425Z,2.07
2017-08-22T19:22:53.980Z,2.23
2017-08-22T19:25:21.550Z,2.30
2017-08-22T19:27:49.079Z,2.37
2017-08-22T19:30:16.645Z,2.20
2017-08-22T19:32:44.178Z,1.90
2017-08-22T19:35:11.733Z,1.90
2017-08-22T19:37:39.265Z,2.60
2017-08-22T19:40:07.445Z,2.03
2017-08-22T19:42:34.984Z,2.70
2017-08-22T19:45:02.534Z,2.80
2017-08-22T19:47:30.085Z,2.50
2017-08-22T19:49:57.653Z,3.57
2017-08-22T19:52:25.205Z,2.33
2017-08-22T19:54:52.774Z,2.00
2017-08-22T19:57:20.334Z,2.60
2017-08-22T19:59:47.972Z,2.10
2017-08-22T20:02:15.530Z,2.80
2017-08-22T20:04:43.067Z,2.03
2017-08-22T20:07:10.621Z,2.10
2017-08-22T20:09:39.117Z,3.27
2017-08-22T20:12:06.706Z,2.43
2017-08-22T20:14:34.285Z,3.27
2017-08-22T20:17:01.824Z,2.70
2017-08-22T20:19:29.396Z,3.13
2017-08-22T20:21:56.945Z,2.70
2017-08-22T20:24:24.516Z,2.83
2017-08-22T20:26:52.042Z,3.80
2017-08-22T20:29:19.604Z,2.80
2017-08-22T20:31:47.274Z,2.33
2017-08-22T20:34:14.799Z,2.40
2017-08-22T20:36:42.372Z,2.57
2017-08-22T20:39:09.910Z,2.10
2017-08-22T20:41:37.485Z,2.50
2017-08-22T20:44:05.075Z,2.80
2017-08-22T20:46:32.653Z,2.53
2017-08-22T20:49:00.221Z,1.90
2017-08-22T20:51:27.797Z,2.33
2017-08-22T20:53:55.345Z,2.70
2017-08-22T20:56:23.181Z,2.67
2017-08-22T20:58:50.759Z,2.53
2017-08-22T21:01:18.348Z,2.77
2017-08-22T21:03:45.918Z,1.90
2017-08-22T21:06:13.495Z,2.20
2017-08-22T21:08:41.048Z,2.37
2017-08-22T21:11:09.346Z,2.07
2017-08-22T21:13:36.921Z,2.10
2017-08-22T21:16:04.481Z,2.30
2017-08-22T21:18:32.026Z,2.10
2017-08-22T21:20:59.592Z,2.50
2017-08-22T21:23:27.124Z,2.03
2017-08-22T21:25:55.440Z,2.20
2017-08-22T21:28:22.978Z,2.10
2017-08-22T21:30:50.529Z,3.30
2017-08-22T21:33:18.100Z,2.03
2017-08-22T21:35:45.658Z,2.33
2017-08-22T21:38:13.205Z,3.30
2017-08-22T21:40:40.765Z,3.13
2017-08-22T21:43:08.334Z,3.20
2017-08-22T21:45:35.858Z,2.90
2017-08-22T21:48:03.410Z,3.07
2017-08-22T21:50:30.955Z,3.40
2017-08-22T21:52:58.484Z,3.43
2017-08-22T21:55:26.068Z,3.37
2017-08-22T21:57:53.684Z,3.00
2017-08-22T22:00:21.218Z,3.70
2017-08-22T22:02:48.765Z,3.33
2017-08-22T22:05:16.320Z,3.10
2017-08-22T22:07:43.869Z,3.40
2017-08-22T22:10:11.426Z,3.20
2017-08-22T22:12:38.965Z,3.20
2017-08-22T22:15:06.531Z,3.13
2017-08-22T22:17:34.091Z,3.50
2017-08-22T22:20:01.650Z,3.80
2017-08-22T22:22:29.186Z,3.50
2017-08-22T22:24:56.831Z,2.70
2017-08-22T22:27:24.388Z,3.67
2017-08-22T22:29:51.941Z,3.75
2017-08-22T22:32:19.497Z,3.57
2017-08-22T22:34:47.041Z,4.20
2017-08-22T22:37:14.598Z,3.87
2017-08-22T22:39:42.138Z,3.17
2017-08-22T22:42:09.697Z,3.20
2017-08-22T22:44:37.258Z,3.30
2017-08-22T22:47:04.784Z,4.10
2017-08-22T22:49:32.443Z,3.87
2017-08-22T22:51:59.988Z,4.60
2017-08-22T22:54:27.663Z,3.50
2017-08-22T22:56:55.197Z,3.03
2017-08-22T22:59:23.208Z,4.37
2017-08-22T23:01:50.753Z,3.50
2017-08-22T23:04:18.285Z,4.23
2017-08-22T23:06:45.859Z,3.80
2017-08-22T23:09:13.421Z,3.60
2017-08-22T23:11:40.982Z,4.43
2017-08-22T23:14:08.542Z,3.85
2017-08-22T23:16:36.108Z,4.25
2017-08-22T23:19:03.668Z,4.03
2017-08-22T23:21:31.225Z,4.43
2017-08-22T23:23:58.774Z,4.00
2017-08-22T23:26:26.313Z,3.40
2017-08-22T23:28:53.873Z,3.83
2017-08-22T23:31:21.405Z,4.18
2017-08-22T23:33:48.963Z,3.70
2017-08-22T23:36:16.503Z,3.93
2017-08-22T23:38:44.054Z,3.95
2017-08-22T23:41:11.698Z,3.73
2017-08-22T23:43:39.269Z,3.50
2017-08-22T23:46:06.833Z,4.62
2017-08-22T23:48:34.378Z,4.10
2017-08-22T23:51:01.937Z,3.92
2017-08-22T23:53:29.469Z,3.70
2017-08-22T23:55:57.030Z,4.32
2017-08-22T23:58:24.560Z,3.37
